createdAt,value
2018-10-17T00:03:19.405Z,81.900002
2018-10-17T00:08:21.660Z,81.099998
2018-10-17T00:13:23.973Z,81.400002
2018-10-17T00:18:26.258Z,81.5
2018-10-17T00:23:28.732Z,81.599998
2018-10-17T00:28:30.884Z,81.400002
2018-10-17T00:33:33.134Z,82.400002
2018-10-17T00:38:35.360Z,83.5
2018-10-17T00:43:38.828Z,84.099998
2018-10-17T00:48:40.091Z,85.300003
2018-10-17T00:53:42.373Z,86.300003
2018-10-17T00:58:44.602Z,87.400002
2018-10-17T01:03:46.922Z,87.199997
2018-10-17T01:08:49.232Z,87.5
2018-10-17T01:13:51.577Z,88.199997
2018-10-17T01:18:53.934Z,88.699997
2018-10-17T01:23:56.123Z,88.900002
2018-10-17T01:28:58.420Z,90.400002
2018-10-17T01:34:00.825Z,89.5
2018-10-17T01:39:02.994Z,90
2018-10-17T01:44:05.207Z,88.900002
2018-10-17T01:49:07.571Z,90.400002
2018-10-17T01:54:09.801Z,91.5
2018-10-17T01:59:12.237Z,92.699997
2018-10-17T02:04:14.398Z,92.400002
2018-10-17T02:09:16.709Z,94.900002
2018-10-17T02:14:19.078Z,95.599998
2018-10-17T02:19:21.348Z,96.099998
2018-10-17T02:24:23.695Z,98.300003
2018-10-17T02:29:25.920Z,99.400002
2018-10-17T02:34:28.241Z,99.800003
2018-10-17T02:39:32.032Z,99.900002
2018-10-17T02:44:33.038Z,99.900002
2018-10-17T02:49:35.095Z,99.900002
2018-10-17T02:54:37.387Z,99.099998
2018-10-17T02:59:39.629Z,99.199997
2018-10-17T03:04:41.934Z,99.5
2018-10-17T03:09:44.275Z,97.5
2018-10-17T03:14:46.628Z,97.099998
2018-10-17T03:19:48.832Z,97.400002
2018-10-17T03:24:51.238Z,99.599998
2018-10-17T03:29:53.467Z,99.900002
2018-10-17T03:34:55.808Z,99.900002
2018-10-17T03:39:58.099Z,99.900002
2018-10-17T03:45:00.252Z,99.900002
2018-10-17T03:50:02.675Z,99.900002
2018-10-17T03:55:05.003Z,99.5
2018-10-17T04:00:07.175Z,99.900002
2018-10-17T04:05:09.639Z,99.900002
2018-10-17T04:10:11.789Z,99.900002
2018-10-17T04:15:14.091Z,99.900002
2018-10-17T04:20:16.324Z,99.900002
2018-10-17T04:25:18.864Z,99.900002
2018-10-17T04:30:20.921Z,99.900002
2018-10-17T04:35:23.264Z,99.900002
2018-10-17T04:40:25.664Z,99.900002
2018-10-17T04:45:27.820Z,99.900002
2018-10-17T04:50:30.135Z,99.900002
2018-10-17T04:55:32.455Z,99.900002
2018-10-17T05:00:34.725Z,99.900002
2018-10-17T05:05:37.110Z,99.900002
2018-10-17T05:10:39.292Z,99.900002
2018-10-17T05:15:41.652Z,99.900002
2018-10-17T05:20:45.308Z,99.900002
2018-10-17T05:25:46.239Z,99.900002
2018-10-17T05:30:48.616Z,99.900002
2018-10-17T05:35:50.751Z,99.900002
2018-10-17T05:40:53.251Z,99.900002
2018-10-17T05:45:56.824Z,99.900002
2018-10-17T05:50:57.677Z,99.900002
2018-10-17T05:55:59.965Z,99.900002
2018-10-17T06:01:02.289Z,99.900002
2018-10-17T06:06:04.663Z,99.900002
2018-10-17T06:11:06.877Z,99.900002
2018-10-17T06:16:10.327Z,99.900002
2018-10-17T06:21:11.392Z,99.900002
2018-10-17T06:26:13.800Z,99.900002
2018-10-17T06:31:16.133Z,99.900002
2018-10-17T06:36:18.290Z,99.900002
2018-10-17T06:41:20.614Z,99.900002
2018-10-17T06:46:22.964Z,99.900002
2018-10-17T06:51:25.243Z,99.900002
2018-10-17T06:56:27.567Z,99.900002
2018-10-17T07:01:29.973Z,99.900002
2018-10-17T07:06:32.098Z,99.900002
2018-10-17T07:11:34.515Z,99.900002
2018-10-17T07:16:36.689Z,99.900002
2018-10-17T07:21:39.025Z,99.900002
2018-10-17T07:26:41.330Z,99.900002
2018-10-17T07:31:43.606Z,99.900002
2018-10-17T07:36:45.914Z,99.900002
2018-10-17T07:41:48.177Z,99.900002
2018-10-17T07:46:50.463Z,99.900002
2018-10-17T07:51:52.744Z,99.900002
2018-10-17T07:56:55.079Z,99.900002
2018-10-17T08:01:57.380Z,99.900002
2018-10-17T08:06:59.678Z,99.900002
2018-10-17T08:12:01.903Z,99.900002
2018-10-17T08:17:04.256Z,99.900002
2018-10-17T08:22:06.481Z,99.900002
2018-10-17T08:27:08.872Z,99.900002
2018-10-17T08:32:11.128Z,99.900002
2018-10-17T08:37:13.755Z,99.900002
2018-10-17T08:42:15.690Z,99.900002
2018-10-17T08:47:17.992Z,99.900002
2018-10-17T08:52:20.442Z,99.900002
2018-10-17T08:57:22.650Z,99.199997
2018-10-17T09:02:24.832Z,98.800003
2018-10-17T09:07:27.225Z,98.300003
2018-10-17T09:17:31.813Z,95.599998
2018-10-17T09:22:34.193Z,95.300003
2018-10-17T09:27:36.314Z,93.900002
2018-10-17T09:32:38.660Z,93.099998
2018-10-17T09:37:40.890Z,92.800003
2018-10-17T09:42:43.425Z,92
2018-10-17T09:47:45.494Z,92.099998
2018-10-17T09:52:47.823Z,90.099998
2018-10-17T09:57:50.151Z,87.300003
2018-10-17T10:02:52.355Z,87
2018-10-17T10:07:54.657Z,84.199997
2018-10-17T10:12:57.119Z,85.199997
2018-10-17T10:17:59.293Z,81.5
2018-10-17T10:23:01.632Z,81
2018-10-17T10:28:04.140Z,78.5
2018-10-17T10:33:06.249Z,79.900002
2018-10-17T10:38:08.471Z,76.800003
2018-10-17T10:43:10.788Z,77.599998
2018-10-17T10:48:13.331Z,74.699997
2018-10-17T10:53:15.454Z,75
2018-10-17T10:58:17.773Z,71.5
2018-10-17T11:03:19.958Z,74.099998
2018-10-17T11:08:22.153Z,62.700001
2018-10-17T11:13:24.537Z,61.599998
2018-10-17T11:18:26.871Z,61.299999
2018-10-17T11:23:29.094Z,60
2018-10-17T11:28:31.457Z,56.599998
2018-10-17T11:33:33.769Z,54.799999
2018-10-17T11:38:36.006Z,53.700001
2018-10-17T11:43:38.275Z,49.099998
2018-10-17T11:48:40.753Z,47.299999
2018-10-17T11:53:42.812Z,48.599998
2018-10-17T11:58:45.223Z,48.599998
2018-10-17T12:03:47.862Z,51.700001
2018-10-17T12:08:49.797Z,52.299999
2018-10-17T12:13:52.160Z,54.200001
2018-10-17T12:18:56.201Z,55.200001
2018-10-17T12:23:56.793Z,56
2018-10-17T12:28:59.155Z,56.700001
2018-10-17T12:34:01.223Z,60
2018-10-17T12:39:03.521Z,57.099998
2018-10-17T12:44:05.978Z,57.400002
2018-10-17T12:49:08.116Z,56.400002
2018-10-17T12:54:10.375Z,55.5
2018-10-17T12:59:12.837Z,54.5
2018-10-17T13:04:14.941Z,55.900002
2018-10-17T13:09:17.279Z,57.200001
2018-10-17T13:14:19.537Z,57.700001
2018-10-17T13:24:24.202Z,61.299999
2018-10-17T13:29:26.438Z,57.700001
2018-10-17T13:34:28.816Z,59.799999
2018-10-17T13:44:33.513Z,61.5
2018-10-17T13:49:35.817Z,60.799999
2018-10-17T13:54:38.085Z,62.599998
2018-10-17T13:59:40.346Z,59.799999
2018-10-17T14:04:42.571Z,59.799999
2018-10-17T14:09:44.827Z,59.400002
2018-10-17T14:14:47.108Z,61
2018-10-17T14:19:49.376Z,59.900002
2018-10-17T14:24:51.743Z,59.400002
2018-10-17T14:29:53.980Z,59
2018-10-17T14:34:56.339Z,59.099998
2018-10-17T14:39:58.882Z,56.200001
2018-10-17T14:45:00.985Z,58.299999
2018-10-17T14:50:03.194Z,56.799999
2018-10-17T14:55:05.506Z,59.400002
2018-10-17T15:00:07.826Z,58.900002
2018-10-17T15:05:10.128Z,59.200001
2018-10-17T15:10:12.351Z,61.200001
2018-10-17T15:15:14.856Z,62.900002
2018-10-17T15:20:16.945Z,60.900002
2018-10-17T15:25:19.195Z,62.200001
2018-10-17T15:30:21.521Z,63.299999
2018-10-17T15:35:23.935Z,63.5
2018-10-17T15:40:26.105Z,64.199997
2018-10-17T15:45:28.462Z,66.599998
2018-10-17T15:50:30.772Z,68.300003
2018-10-17T15:55:33.067Z,68.400002
2018-10-17T16:00:35.385Z,68.599998
2018-10-17T16:05:37.664Z,69.5
2018-10-17T16:10:39.851Z,70.699997
2018-10-17T16:15:42.222Z,71.800003
2018-10-17T16:20:44.519Z,72.800003
2018-10-17T16:25:46.752Z,73.300003
2018-10-17T16:30:49.194Z,73.699997
2018-10-17T16:35:51.486Z,74.699997
2018-10-17T16:40:53.634Z,74.800003
2018-10-17T16:45:55.936Z,75.400002
2018-10-17T16:50:58.391Z,75.599998
2018-10-17T16:56:00.687Z,76.800003
2018-10-17T17:01:03.104Z,77
2018-10-17T17:06:05.236Z,77.400002
2018-10-17T17:11:07.395Z,78.199997
2018-10-17T17:16:09.850Z,79.099998
2018-10-17T17:21:12.106Z,79.400002
2018-10-17T17:26:14.290Z,79.800003
2018-10-17T17:31:16.580Z,79.800003
2018-10-17T17:36:19.004Z,79.599998
2018-10-17T17:41:21.277Z,79.900002
2018-10-17T17:46:23.513Z,79.599998
2018-10-17T17:51:25.771Z,79.900002
2018-10-17T17:56:28.110Z,80.699997
2018-10-17T18:01:30.376Z,80.400002
2018-10-17T18:06:32.854Z,80.800003
2018-10-17T18:11:34.975Z,81.400002
2018-10-17T18:16:37.305Z,81.5
2018-10-17T18:21:39.611Z,82.5
2018-10-17T18:26:41.792Z,82.099998
2018-10-17T18:31:44.103Z,83.199997
2018-10-17T18:36:46.504Z,83.5
2018-10-17T18:41:48.692Z,84.599998
2018-10-17T18:46:51.039Z,86
2018-10-17T18:51:53.319Z,85.199997
2018-10-17T18:56:55.662Z,85
2018-10-17T19:01:57.913Z,85.599998
2018-10-17T19:07:02.008Z,86.099998
2018-10-17T19:12:02.624Z,86
2018-10-17T19:17:05.249Z,86.300003
2018-10-17T19:22:07.114Z,87
2018-10-17T19:27:09.383Z,87.699997
2018-10-17T19:32:11.786Z,87.5
2018-10-17T19:37:14.020Z,87.400002
2018-10-17T19:42:16.275Z,88
2018-10-17T19:47:18.612Z,88.099998
2018-10-17T19:52:20.948Z,87.699997
2018-10-17T19:57:23.135Z,87.5
2018-10-17T20:02:25.562Z,88.5
2018-10-17T20:07:27.813Z,89.699997
2018-10-17T20:12:30.001Z,88.900002
2018-10-17T20:17:32.497Z,89.900002
2018-10-17T20:22:34.660Z,90.699997
2018-10-17T20:27:36.949Z,89.900002
2018-10-17T20:32:40.549Z,90.699997
2018-10-17T20:37:41.488Z,90.800003
2018-10-17T20:42:43.753Z,91
2018-10-17T20:47:46.137Z,90.5
2018-10-17T20:52:48.306Z,90.5
2018-10-17T20:57:50.701Z,90
2018-10-17T21:02:53.036Z,89.400002
2018-10-17T21:07:55.231Z,88.900002
2018-10-17T21:12:57.590Z,88.900002
2018-10-17T21:17:59.904Z,89.400002
2018-10-17T21:23:02.151Z,88.900002
2018-10-17T21:28:04.403Z,89.800003
2018-10-17T21:33:06.823Z,90.5
2018-10-17T21:38:09.003Z,90.800003
2018-10-17T21:43:11.385Z,90.900002
2018-10-17T21:48:13.679Z,90.599998
2018-10-17T21:53:15.876Z,90.900002
2018-10-17T21:58:18.139Z,90.400002
2018-10-17T22:03:20.574Z,90.099998
2018-10-17T22:08:22.914Z,90.900002
2018-10-17T22:13:25.049Z,91.199997
2018-10-17T22:18:27.380Z,91.099998
2018-10-17T22:23:29.775Z,91.5
2018-10-17T22:28:32.001Z,91.900002
2018-10-17T22:33:34.253Z,91.900002
2018-10-17T22:38:36.557Z,91.900002
2018-10-17T22:43:38.849Z,92.099998
2018-10-17T22:48:41.181Z,92.199997
2018-10-17T22:53:43.433Z,91.099998
2018-10-17T22:58:45.691Z,89.099998
2018-10-17T23:03:48.122Z,88.599998
2018-10-17T23:08:50.347Z,88.699997
2018-10-17T23:13:52.620Z,89
2018-10-17T23:18:54.894Z,88.5
2018-10-17T23:23:57.269Z,88.900002
2018-10-17T23:28:59.594Z,88.400002
2018-10-17T23:34:01.789Z,88.199997
2018-10-17T23:39:04.018Z,88
2018-10-17T23:44:07.947Z,88.199997
2018-10-17T23:49:08.656Z,88.5
2018-10-17T23:54:11.151Z,88.900002
2018-10-17T23:59:14.397Z,89.199997
